Time;durP1;ratioP1;P1;durP2;ratioP2;P2;SDS_P1;SDS_P2;PMS_P1;PMS_P2;Temp;Humidity;BMP_temperature;BMP_pressure;BME280_temperature;BME280_humidity;BME280_pressure;Samples;Min_cycle;Max_cycle;Signal;HPM_P1;HPM_P2
2023/09/06 00:01:04;;;;;;;6.28;3.47;;;;;;;22.64;50.68;100612.78;4478613;32;32241;-79
2023/09/06 00:03:32;;;;;;;6.23;3.57;;;;;;;23.08;49.40;100608.72;4477339;32;32989;-78
2023/09/06 00:06:00;;;;;;;5.72;3.58;;;;;;;22.42;51.53;100616.97;4474141;32;33783;-79
2023/09/06 00:08:27;;;;;;;5.20;3.40;;;;;;;22.96;50.36;100614.78;4471757;32;34595;-79
2023/09/06 00:10:56;;;;;;;6.97;3.58;;;;;;;22.35;51.79;100617.81;4478445;32;32417;-79
2023/09/06 00:13:23;;;;;;;7.78;3.40;;;;;;;22.44;51.34;100609.97;4479604;32;33300;-78
2023/09/06 00:15:51;;;;;;;6.28;3.62;;;;;;;22.61;51.41;100617.16;4473234;32;33929;-78
2023/09/06 00:18:18;;;;;;;7.00;3.70;;;;;;;22.22;51.98;100611.47;4482495;32;33436;-77
2023/09/06 00:20:46;;;;;;;7.10;3.58;;;;;;;22.53;50.41;100610.03;4476074;32;33556;-79
2023/09/06 00:23:14;;;;;;;5.37;3.20;;;;;;;21.97;52.24;100607.69;4479435;32;33405;-78
2023/09/06 00:25:43;;;;;;;6.12;3.30;;;;;;;22.89;50.17;100598.03;4468380;32;33713;-78
2023/09/06 00:28:12;;;;;;;6.40;3.45;;;;;;;22.40;51.22;100608.16;4469612;32;33611;-78
2023/09/06 00:30:44;;;;;;;8.02;3.40;;;;;;;22.62;50.10;100598.69;4482695;32;33677;-79
2023/09/06 00:33:13;;;;;;;6.40;3.50;;;;;;;22.51;50.28;100601.22;4478283;32;33755;-79
2023/09/06 00:35:41;;;;;;;7.47;3.17;;;;;;;22.52;50.37;100603.00;4469531;32;33731;-79
2023/09/06 00:38:08;;;;;;;6.00;3.40;;;;;;;22.69;49.75;100605.78;4482197;32;35281;-77
2023/09/06 00:40:37;;;;;;;7.10;3.45;;;;;;;22.48;50.02;100606.47;4477309;32;33514;-79
2023/09/06 00:43:06;;;;;;;6.47;3.50;;;;;;;22.60;49.95;100604.81;4480024;32;33212;-78
2023/09/06 00:45:43;;;;;;;5.62;3.37;;;;;;;22.84;49.16;100605.00;4479000;32;34411;-79
2023/09/06 00:48:13;;;;;;;6.22;3.50;;;;;;;23.21;48.03;100615.00;4469104;32;33270;-77
2023/09/06 00:50:41;;;;;;;5.65;3.35;;;;;;;22.47;50.19;100610.00;4480336;32;33842;-79
2023/09/06 00:53:08;;;;;;;5.93;3.20;;;;;;;21.86;52.13;100609.31;4471338;32;33355;-78
2023/09/06 00:55:41;;;;;;;6.57;3.57;;;;;;;21.31;53.88;100618.28;4468342;32;33769;-79
2023/09/06 00:58:08;;;;;;;5.28;3.08;;;;;;;21.21;53.83;100614.62;4487813;31;33717;-78
2023/09/06 01:00:36;;;;;;;6.72;3.47;;;;;;;22.12;51.16;100613.16;4485324;31;34611;-79
2023/09/06 01:03:04;;;;;;;7.05;3.17;;;;;;;21.78;52.00;100602.19;4471770;31;33938;-77
2023/09/06 01:05:40;;;;;;;6.43;3.17;;;;;;;22.06;51.02;100606.91;4489378;31;33289;-77
2023/09/06 01:08:11;;;;;;;5.68;3.22;;;;;;;22.44;49.59;100604.69;4470446;32;34844;-79
2023/09/06 01:10:39;;;;;;;6.25;3.15;;;;;;;22.85;48.67;100609.44;4475324;31;33106;-77
2023/09/06 01:13:06;;;;;;;5.63;3.40;;;;;;;22.74;48.81;100603.19;4485522;31;33320;-78
2023/09/06 01:15:35;;;;;;;6.25;3.00;;;;;;;23.25;46.92;100615.00;4488422;31;33365;-78
2023/09/06 01:18:04;;;;;;;7.60;3.30;;;;;;;22.99;47.85;100608.66;4489772;31;33449;-79
2023/09/06 01:20:42;;;;;;;6.30;2.92;;;;;;;22.40;49.87;100610.81;4489523;31;33371;-78
2023/09/06 01:23:33;;;;;;;5.62;3.37;;;;;;;22.69;49.44;100610.19;4487079;31;33333;-78
2023/09/06 01:26:01;;;;;;;5.62;3.30;;;;;;;22.12;51.02;100609.63;4493394;31;33680;-78
2023/09/06 01:28:30;;;;;;;5.00;2.90;;;;;;;22.26;50.26;100608.03;4470153;31;33573;-77
2023/09/06 01:31:00;;;;;;;6.35;2.95;;;;;;;22.33;49.54;100611.62;4473237;31;33742;-77
2023/09/06 01:33:29;;;;;;;5.30;3.20;;;;;;;22.03;50.41;100615.69;4485346;31;33876;-78
2023/09/06 01:35:57;;;;;;;6.00;3.10;;;;;;;21.83;51.39;100617.19;4486285;31;33594;-77
2023/09/06 01:38:25;;;;;;;6.53;2.90;;;;;;;22.47;48.78;100619.69;4491833;31;33869;-77
2023/09/06 01:40:53;;;;;;;6.40;3.20;;;;;;;22.29;49.00;100615.09;4486095;31;33227;-78
2023/09/06 01:43:21;;;;;;;7.03;3.33;;;;;;;22.47;48.25;100610.00;4486862;31;33207;-77
2023/09/06 01:45:50;;;;;;;5.07;3.00;;;;;;;22.26;49.42;100615.06;4494563;31;33444;-77
2023/09/06 01:48:21;;;;;;;5.82;3.03;;;;;;;22.10;49.92;100612.25;4483508;32;35170;-78
2023/09/06 01:50:49;;;;;;;5.57;3.50;;;;;;;21.91;50.90;100610.28;4485068;31;33128;-78
2023/09/06 01:53:16;;;;;;;5.70;3.40;;;;;;;21.54;51.57;100612.47;4484147;31;33011;-79
2023/09/06 01:55:44;;;;;;;6.78;3.30;;;;;;;22.07;49.91;100612.19;4486948;31;33747;-79
2023/09/06 01:58:12;;;;;;;6.47;3.30;;;;;;;21.79;50.48;100609.25;4492370;31;33858;-78
2023/09/06 02:00:40;;;;;;;5.15;3.37;;;;;;;22.44;48.29;100607.31;4485472;31;34452;-78
2023/09/06 02:03:10;;;;;;;5.97;3.20;;;;;;;22.27;49.43;100616.81;4489626;31;33111;-77
2023/09/06 02:05:39;;;;;;;5.40;3.40;;;;;;;22.27;50.02;100606.28;4486251;31;34374;-78
2023/09/06 02:08:07;;;;;;;6.07;3.03;;;;;;;22.82;48.73;100605.88;4483059;31;33663;-79
2023/09/06 02:10:35;;;;;;;6.43;3.20;;;;;;;22.79;48.74;100612.00;4479651;31;34578;-79
2023/09/06 02:13:05;;;;;;;5.80;3.30;;;;;;;22.43;49.09;100613.50;4483863;31;33443;-78
2023/09/06 02:15:32;;;;;;;5.87;3.00;;;;;;;22.28;49.23;100613.34;4496189;31;33835;-79
2023/09/06 02:18:15;;;;;;;5.65;3.00;;;;;;;22.12;49.69;100607.88;4488457;31;34436;-78
2023/09/06 02:20:44;;;;;;;5.45;3.10;;;;;;;22.41;49.06;100604.66;4481059;31;34442;-78
2023/09/06 02:23:12;;;;;;;5.93;3.47;;;;;;;22.07;50.27;100612.19;4479541;31;34009;-78
2023/09/06 02:25:39;;;;;;;5.60;3.15;;;;;;;22.34;49.02;100600.19;4458602;31;32392;-79
2023/09/06 02:28:08;;;;;;;6.20;3.20;;;;;;;22.29;49.31;100599.25;4453535;32;34164;-78
2023/09/06 02:30:39;;;;;;;6.22;3.40;;;;;;;21.55;50.85;100595.78;4471421;31;33414;-78
2023/09/06 02:33:09;;;;;;;5.68;3.30;;;;;;;21.63;51.07;100596.75;4478572;31;32460;-78
2023/09/06 02:35:40;;;;;;;5.15;3.12;;;;;;;22.37;49.36;100597.59;4474573;31;33562;-77
2023/09/06 02:38:09;;;;;;;5.50;3.20;;;;;;;21.29;52.23;100598.91;4478824;31;32761;-78
2023/09/06 02:40:42;;;;;;;6.32;3.10;;;;;;;21.14;52.70;100596.06;4474393;31;33426;-79
2023/09/06 02:43:13;;;;;;;6.65;3.12;;;;;;;21.78;50.29;100596.06;4471989;31;33094;-78
2023/09/06 02:45:49;;;;;;;5.37;3.20;;;;;;;21.04;52.67;100600.31;4471254;31;34194;-77
2023/09/06 02:48:18;;;;;;;5.68;3.30;;;;;;;21.65;50.98;100594.13;4458453;32;32892;-78
2023/09/06 02:50:47;;;;;;;6.37;3.12;;;;;;;21.94;49.43;100592.75;4475406;31;33140;-77
2023/09/06 02:53:19;;;;;;;5.47;3.10;;;;;;;22.27;48.69;100595.72;4476876;31;32912;-79
2023/09/06 02:55:51;;;;;;;5.75;3.05;;;;;;;21.59;51.00;100605.47;4472949;31;33330;-78
2023/09/06 02:58:23;;;;;;;5.93;3.53;;;;;;;21.65;50.69;100599.41;4473518;31;33348;-78
2023/09/06 03:00:57;;;;;;;7.80;3.55;;;;;;;21.53;50.63;100600.13;4470100;31;33057;-78
2023/09/06 03:03:27;;;;;;;5.37;3.35;;;;;;;21.59;50.65;100602.84;4469819;31;32609;-78
2023/09/06 03:05:57;;;;;;;5.90;3.20;;;;;;;21.96;50.04;100600.63;4477138;31;34227;-78
2023/09/06 03:08:27;;;;;;;5.70;3.50;;;;;;;21.43;51.67;100603.50;4474359;31;33480;-77
2023/09/06 03:10:57;;;;;;;5.57;3.25;;;;;;;21.84;50.52;100600.50;4469257;31;31925;-78
2023/09/06 03:13:24;;;;;;;5.45;3.28;;;;;;;21.77;49.79;100600.44;4460998;31;34019;-77
2023/09/06 03:15:54;;;;;;;7.40;3.35;;;;;;;21.43;51.66;100603.50;4457763;32;34109;-77
2023/09/06 03:18:22;;;;;;;5.95;3.40;;;;;;;21.72;50.54;100598.62;4472295;31;33380;-78
2023/09/06 03:20:55;;;;;;;5.93;3.20;;;;;;;21.91;49.40;100602.38;4464257;32;32158;-78
2023/09/06 03:23:24;;;;;;;6.10;3.35;;;;;;;22.21;48.82;100600.91;4469409;32;33730;-78
2023/09/06 03:25:57;;;;;;;6.22;3.40;;;;;;;21.94;49.70;100611.19;4483783;31;33725;-78
2023/09/06 03:28:28;;;;;;;5.33;3.10;;;;;;;21.50;50.93;100600.09;4485419;31;33246;-78
2023/09/06 03:30:59;;;;;;;5.97;3.40;;;;;;;22.34;49.03;100597.56;4486106;31;34477;-78
2023/09/06 03:33:28;;;;;;;5.83;3.40;;;;;;;21.82;50.32;100596.97;4477378;31;32678;-78
2023/09/06 03:35:56;;;;;;;5.55;3.30;;;;;;;21.82;50.16;100604.88;4491216;31;34355;-78
2023/09/06 03:38:25;;;;;;;5.80;3.33;;;;;;;21.06;52.35;100608.25;4483429;31;34176;-78
2023/09/06 03:40:55;;;;;;;5.93;3.15;;;;;;;21.80;50.05;100610.13;4490400;31;34158;-78
2023/09/06 03:43:30;;;;;;;6.53;3.30;;;;;;;20.93;52.42;100608.03;4470212;31;33151;-77
2023/09/06 03:46:07;;;;;;;6.07;3.53;;;;;;;22.09;49.55;100618.38;4493436;31;32946;-78
2023/09/06 03:48:35;;;;;;;7.35;3.62;;;;;;;21.56;50.74;100611.62;4490908;31;33192;-78
2023/09/06 03:51:04;;;;;;;6.03;3.42;;;;;;;22.14;48.88;100615.81;4460198;32;33425;-77
2023/09/06 03:53:33;;;;;;;10.63;3.77;;;;;;;22.06;48.49;100617.44;4469054;31;31478;-78
2023/09/06 03:56:01;;;;;;;6.22;3.35;;;;;;;21.69;49.21;100615.31;4484995;31;32016;-78
2023/09/06 03:58:34;;;;;;;5.57;3.40;;;;;;;21.69;49.65;100617.03;4482333;31;34251;-78
2023/09/06 04:01:03;;;;;;;7.05;3.72;;;;;;;22.07;48.38;100622.75;4485552;31;32697;-79
2023/09/06 04:03:32;;;;;;;6.47;3.53;;;;;;;21.64;49.59;100624.91;4470187;32;32332;-77
2023/09/06 04:06:02;;;;;;;7.27;3.87;;;;;;;21.80;49.16;100620.69;4487660;31;34495;-77
2023/09/06 04:08:33;;;;;;;7.50;3.65;;;;;;;21.32;51.12;100620.03;4482223;31;32769;-78
2023/09/06 04:11:02;;;;;;;7.37;3.50;;;;;;;21.47;49.79;100615.88;4485712;31;34386;-78
2023/09/06 04:13:29;;;;;;;7.07;3.80;;;;;;;21.89;48.66;100622.56;4487150;31;33853;-78
2023/09/06 04:15:57;;;;;;;6.82;3.80;;;;;;;21.32;50.45;100617.38;4476671;31;33494;-77
2023/09/06 04:18:25;;;;;;;7.12;3.92;;;;;;;20.98;52.05;100616.91;4491615;31;33541;-77
2023/09/06 04:20:53;;;;;;;8.30;3.67;;;;;;;20.46;52.90;100626.56;4497666;31;33675;-77
2023/09/06 04:23:20;;;;;;;7.55;3.33;;;;;;;20.69;52.77;100629.63;4490373;31;33484;-77
2023/09/06 04:25:49;;;;;;;6.90;3.60;;;;;;;19.97;54.51;100631.78;4475580;31;32661;-78
2023/09/06 04:28:20;;;;;;;6.07;3.50;;;;;;;20.51;53.17;100627.50;4488419;31;34471;-77
2023/09/06 04:30:48;;;;;;;7.65;3.90;;;;;;;20.81;52.54;100636.81;4486025;31;33892;-78
2023/09/06 04:33:17;;;;;;;8.17;3.87;;;;;;;20.38;53.30;100644.84;4487896;31;33264;-79
2023/09/06 04:35:47;;;;;;;8.55;3.97;;;;;;;20.80;52.30;100645.56;4486268;31;33644;-79
2023/09/06 04:38:16;;;;;;;7.75;4.20;;;;;;;20.60;52.68;100634.72;4491314;31;33563;-79
2023/09/06 04:40:46;;;;;;;8.40;3.95;;;;;;;21.62;49.57;100636.28;4487259;31;33428;-79
2023/09/06 04:43:18;;;;;;;6.97;3.67;;;;;;;21.54;49.06;100638.81;4491501;31;33684;-80
2023/09/06 04:45:49;;;;;;;7.30;3.80;;;;;;;20.76;51.93;100646.38;4485129;31;33568;-78
2023/09/06 04:48:17;;;;;;;7.65;3.62;;;;;;;21.04;51.06;100647.72;4488525;31;33504;-78
2023/09/06 04:50:47;;;;;;;6.43;3.87;;;;;;;21.48;49.80;100646.63;4495547;31;33554;-77
2023/09/06 04:53:17;;;;;;;6.97;3.70;;;;;;;21.28;50.10;100646.31;4486819;31;33373;-79
2023/09/06 04:55:49;;;;;;;6.20;3.40;;;;;;;21.01;51.39;100648.59;4470001;31;33345;-77
2023/09/06 04:58:18;;;;;;;6.47;3.50;;;;;;;21.50;49.96;100647.53;4484021;31;32394;-79
2023/09/06 05:00:47;;;;;;;6.60;3.72;;;;;;;21.34;50.85;100647.31;4468599;32;33094;-79
2023/09/06 05:03:19;;;;;;;7.78;3.95;;;;;;;21.83;49.44;100651.47;4460811;31;33216;-78
2023/09/06 05:05:51;;;;;;;5.95;3.33;;;;;;;21.66;49.53;100644.25;4490585;31;32279;-77
2023/09/06 05:08:19;;;;;;;8.93;3.87;;;;;;;21.49;50.40;100645.78;4484980;31;33604;-77
2023/09/06 05:10:51;;;;;;;7.18;3.33;;;;;;;21.30;50.66;100653.38;4484193;31;33789;-79
2023/09/06 05:13:20;;;;;;;6.83;3.40;;;;;;;21.43;51.06;100650.94;4483810;31;33000;-78
2023/09/06 05:15:47;;;;;;;6.57;3.62;;;;;;;21.57;51.05;100654.66;4486755;31;34572;-78
2023/09/06 05:18:16;;;;;;;7.65;3.65;;;;;;;21.59;51.12;100652.94;4492451;31;33741;-77
2023/09/06 05:20:44;;;;;;;8.32;3.67;;;;;;;22.21;49.48;100661.59;4483551;31;33438;-78
2023/09/06 05:23:14;;;;;;;7.35;3.78;;;;;;;22.48;48.36;100658.41;4473708;32;31571;-78
2023/09/06 05:25:43;;;;;;;6.68;3.65;;;;;;;22.04;50.08;100657.03;4479798;31;32044;-79
2023/09/06 05:28:14;;;;;;;6.22;3.70;;;;;;;22.53;48.85;100659.34;4490794;31;33699;-78
2023/09/06 05:30:44;;;;;;;6.20;3.75;;;;;;;22.69;48.43;100652.44;4486832;31;32506;-77
2023/09/06 05:33:13;;;;;;;7.82;3.90;;;;;;;23.24;46.96;100655.53;4486999;31;32953;-77
2023/09/06 05:35:42;;;;;;;7.93;3.83;;;;;;;23.33;46.56;100652.97;4488261;31;33683;-78
2023/09/06 05:38:10;;;;;;;12.77;4.57;;;;;;;22.50;49.10;100662.84;4492645;31;34360;-78
2023/09/06 05:40:43;;;;;;;8.05;3.80;;;;;;;22.27;49.82;100656.41;4456717;32;33325;-77
2023/09/06 05:43:11;;;;;;;8.32;3.70;;;;;;;23.55;46.47;100656.59;4486926;31;32879;-77
2023/09/06 05:45:39;;;;;;;9.10;4.10;;;;;;;23.29;46.67;100661.72;4475773;31;33393;-78
2023/09/06 05:48:07;;;;;;;8.30;3.67;;;;;;;23.20;47.10;100664.34;4490282;31;34472;-77
2023/09/06 05:50:39;;;;;;;7.47;3.67;;;;;;;24.57;43.91;100679.94;4486465;31;33741;-78
2023/09/06 05:53:06;;;;;;;7.85;3.58;;;;;;;23.96;45.72;100670.94;4488998;31;33212;-78
2023/09/06 05:55:34;;;;;;;9.30;3.70;;;;;;;24.75;43.93;100669.38;4489777;31;33688;-80
2023/09/06 05:58:02;;;;;;;6.95;3.45;;;;;;;24.63;44.32;100672.91;4484283;31;33689;-79
2023/09/06 06:00:30;;;;;;;6.95;3.70;;;;;;;24.42;44.80;100663.13;4485660;31;34530;-83
2023/09/06 06:03:01;;;;;;;6.97;3.30;;;;;;;23.67;46.96;100668.13;4484175;31;32935;-79
2023/09/06 06:05:29;;;;;;;7.50;3.70;;;;;;;24.19;46.17;100667.47;4493702;31;33080;-78
2023/09/06 06:07:57;;;;;;;7.78;3.72;;;;;;;23.95;46.62;100671.78;4488186;31;33798;-78
2023/09/06 06:10:29;;;;;;;9.03;3.73;;;;;;;24.40;45.62;100667.53;4492167;31;33681;-77
2023/09/06 06:12:56;;;;;;;7.70;3.70;;;;;;;23.91;46.75;100662.06;4482223;31;32778;-77
2023/09/06 06:15:25;;;;;;;6.18;3.62;;;;;;;23.48;47.74;100667.13;4483933;31;34493;-77
2023/09/06 06:17:53;;;;;;;7.43;3.70;;;;;;;24.13;46.19;100673.66;4495469;31;33860;-76
2023/09/06 06:20:21;;;;;;;7.53;3.75;;;;;;;24.07;46.39;100673.63;4483081;32;33967;-78
2023/09/06 06:23:05;;;;;;;5.97;3.65;;;;;;;24.03;46.74;100678.03;4492594;31;33432;-77
2023/09/06 06:25:32;;;;;;;6.15;3.35;;;;;;;24.06;46.51;100678.00;4492576;31;33445;-77
2023/09/06 06:28:00;;;;;;;7.75;3.70;;;;;;;24.01;46.99;100679.78;4493414;31;34568;-77
2023/09/06 06:30:28;;;;;;;8.10;3.83;;;;;;;24.16;47.03;100678.06;4484831;31;34548;-76
2023/09/06 06:32:55;;;;;;;6.90;3.47;;;;;;;24.34;46.91;100683.41;4491886;31;33828;-76
2023/09/06 06:35:23;;;;;;;7.70;3.80;;;;;;;24.25;46.99;100680.72;4478113;31;33793;-76
2023/09/06 06:37:51;;;;;;;8.05;3.70;;;;;;;24.65;46.13;100686.16;4485498;31;34513;-77
2023/09/06 06:40:18;;;;;;;8.48;3.60;;;;;;;24.72;46.12;100685.25;4490348;31;34371;-76
2023/09/06 06:42:46;;;;;;;7.43;3.28;;;;;;;24.81;45.99;100685.25;4486796;31;33439;-77
2023/09/06 06:45:14;;;;;;;7.75;3.75;;;;;;;24.85;45.89;100687.03;4484299;31;34349;-78
2023/09/06 06:47:44;;;;;;;7.25;3.35;;;;;;;25.10;45.31;100689.69;4482669;31;33601;-76
2023/09/06 06:50:12;;;;;;;7.78;3.00;;;;;;;25.20;44.86;100688.78;4486713;31;33933;-77
2023/09/06 06:52:44;;;;;;;7.67;2.97;;;;;;;25.21;45.02;100690.56;4497201;31;33920;-79
2023/09/06 06:55:12;;;;;;;5.97;2.70;;;;;;;25.72;43.22;100689.59;4484879;31;33509;-79
2023/09/06 06:57:40;;;;;;;5.45;2.55;;;;;;;25.60;41.75;100694.06;4485341;31;33419;-79
2023/09/06 07:00:11;;;;;;;6.12;2.80;;;;;;;25.84;40.60;100697.50;4489339;31;33524;-78
2023/09/06 07:02:39;;;;;;;5.78;2.37;;;;;;;25.74;40.63;100687.81;4493497;31;33108;-78
2023/09/06 07:05:07;;;;;;;5.62;2.50;;;;;;;26.51;39.19;100690.12;4488960;31;34048;-78
2023/09/06 07:07:35;;;;;;;4.60;2.35;;;;;;;27.14;37.46;100695.88;4486898;31;34447;-79
2023/09/06 07:10:03;;;;;;;5.30;2.10;;;;;;;27.28;36.57;100700.22;4487888;31;33719;-78
2023/09/06 07:12:31;;;;;;;7.78;2.17;;;;;;;27.49;36.00;100693.78;4486299;31;34265;-78
2023/09/06 07:14:58;;;;;;;5.70;2.40;;;;;;;27.68;35.83;100689.13;4486135;31;32477;-78
2023/09/06 07:17:26;;;;;;;8.95;2.87;;;;;;;27.49;36.16;100686.69;4486316;31;33740;-78
2023/09/06 07:19:54;;;;;;;5.97;2.28;;;;;;;27.13;36.57;100683.47;4485629;31;33699;-78
2023/09/06 07:22:21;;;;;;;6.45;2.17;;;;;;;27.73;35.75;100682.00;4489509;31;34132;-79
2023/09/06 07:24:50;;;;;;;4.60;2.20;;;;;;;27.75;35.08;100672.19;4489192;31;34474;-78
2023/09/06 07:27:18;;;;;;;;;;;;;;;27.56;35.56;100675.06;4475014;31;33215;-78
2023/09/06 07:29:45;;;;;;;;;;;;;;;28.21;34.16;100674.31;4472798;31;33958;-78
2023/09/06 07:32:12;;;;;;;;;;;;;;;28.23;34.90;100678.69;4492912;31;33855;-78
2023/09/06 07:34:40;;;;;;;;;;;;;;;29.33;32.47;100674.31;4491386;31;34022;-79
2023/09/06 07:37:07;;;;;;;;;;;;;;;29.06;33.41;100676.53;4487311;31;34250;-78
2023/09/06 07:39:34;;;;;;;;;;;;;;;29.31;31.90;100670.81;4486652;31;34424;-77
2023/09/06 07:42:03;;;;;;;;;;;;;;;29.70;31.83;100670.94;4496827;31;33151;-78
2023/09/06 07:44:32;;;;;;;;;;;;;;;29.66;32.14;100671.91;4492986;31;34981;-79
2023/09/06 07:47:00;;;;;;;;;;;;;;;30.03;31.59;100676.50;4497633;31;33797;-77
2023/09/06 07:49:30;;;;;;;;;;;;;;;29.45;31.76;100674.09;4486516;31;34350;-79
2023/09/06 07:51:57;;;;;;;;;;;;;;;29.82;31.80;100678.72;4488783;31;33048;-78
2023/09/06 07:54:25;;;;;;;;;;;;;;;30.53;31.28;100677.19;4474720;32;32699;-79
2023/09/06 07:56:52;;;;;;;;;;;;;;;30.46;31.12;100686.25;4471871;32;33993;-77
2023/09/06 07:59:22;;;;;;;;;;;;;;;31.13;29.58;100681.06;4492132;31;33872;-78
2023/09/06 08:01:50;;;;;;;;;;;;;;;30.93;30.12;100682.47;4493180;31;33500;-77
2023/09/06 08:04:19;;;;;;;;;;;;;;;30.84;31.16;100682.66;4478625;31;33927;-78
2023/09/06 08:06:47;;;;;;;;;;;;;;;31.33;29.39;100683.19;4473774;32;33987;-79
2023/09/06 08:09:14;;;;;;;;;;;;;;;31.82;29.21;100689.91;4490437;31;34155;-78
2023/09/06 08:11:42;;;;;;;4.45;1.83;;;;;;;31.46;29.68;100683.78;4473635;32;32781;-77
2023/09/06 08:14:09;;;;;;;4.80;2.40;;;;;;;31.92;29.38;100686.03;4494367;31;34774;-78
2023/09/06 08:16:37;;;;;;;9.27;2.60;;;;;;;31.70;29.88;100692.94;4492318;31;34404;-77
2023/09/06 08:19:05;;;;;;;7.72;2.55;;;;;;;32.14;28.85;100685.41;4491882;31;33699;-77
2023/09/06 08:21:34;;;;;;;5.15;2.40;;;;;;;32.37;28.41;100683.81;4484367;31;32806;-76
2023/09/06 08:24:02;;;;;;;5.47;2.62;;;;;;;32.28;29.19;100693.91;4484577;31;34021;-77
2023/09/06 08:26:30;;;;;;;6.82;2.72;;;;;;;32.20;29.14;100690.59;4482909;31;34007;-76
2023/09/06 08:28:58;;;;;;;5.10;2.47;;;;;;;32.77;28.05;100694.16;4495248;31;34440;-77
2023/09/06 08:31:25;;;;;;;5.53;2.57;;;;;;;33.48;27.67;100689.09;4496298;31;32144;-77
2023/09/06 08:33:53;;;;;;;6.93;2.55;;;;;;;33.45;27.32;100690.06;4466797;32;33266;-77
2023/09/06 08:36:21;;;;;;;5.70;2.50;;;;;;;33.91;27.14;100692.03;4488596;31;33811;-77
2023/09/06 08:38:49;;;;;;;6.25;2.45;;;;;;;33.81;26.80;100686.12;4461192;31;33478;-77
2023/09/06 08:41:17;;;;;;;6.05;2.60;;;;;;;33.32;27.27;100683.38;4486287;31;33792;-77
2023/09/06 08:43:45;;;;;;;7.12;2.70;;;;;;;33.65;27.17;100685.78;4487877;31;33822;-77
2023/09/06 08:46:26;;;;;;;6.05;2.70;;;;;;;34.10;26.30;100687.69;4479024;31;34221;-77
2023/09/06 08:48:55;;;;;;;5.68;2.40;;;;;;;34.42;25.79;100688.22;4475660;31;33876;-78
2023/09/06 08:51:24;;;;;;;6.40;2.70;;;;;;;34.48;25.55;100685.31;4483411;32;33993;-77
2023/09/06 08:53:52;;;;;;;6.22;2.72;;;;;;;34.39;25.88;100688.37;4471683;32;33951;-77
2023/09/06 08:56:20;;;;;;;5.10;2.42;;;;;;;34.81;25.06;100680.38;4486812;31;34226;-77
2023/09/06 08:58:48;;;;;;;7.32;2.47;;;;;;;34.91;24.34;100675.50;4485273;31;34399;-77
2023/09/06 09:01:15;;;;;;;5.87;2.47;;;;;;;34.57;24.62;100682.22;4482872;31;33847;-77
2023/09/06 09:03:43;;;;;;;6.07;2.33;;;;;;;34.48;24.54;100688.00;4484341;31;34364;-77
2023/09/06 09:06:11;;;;;;;6.07;2.42;;;;;;;34.86;24.87;100682.88;4488119;31;33562;-77
2023/09/06 09:08:38;;;;;;;5.82;2.25;;;;;;;35.08;24.79;100681.94;4494095;31;33714;-77
2023/09/06 09:11:14;;;;;;;5.55;2.60;;;;;;;35.07;24.61;100677.53;4485422;31;33289;-77
2023/09/06 09:13:42;;;;;;;6.68;2.40;;;;;;;35.02;24.50;100681.28;4477104;31;32949;-77
2023/09/06 09:16:15;;;;;;;4.75;2.30;;;;;;;35.05;24.56;100677.59;4483251;31;33587;-77
2023/09/06 09:18:44;;;;;;;5.22;2.30;;;;;;;35.31;23.38;100683.66;4486652;31;34223;-77
2023/09/06 09:21:13;;;;;;;5.10;2.25;;;;;;;35.18;23.89;100677.97;4475297;31;33591;-76
2023/09/06 09:23:46;;;;;;;5.78;2.20;;;;;;;35.34;23.54;100673.63;4486455;31;33370;-76
2023/09/06 09:26:16;;;;;;;5.75;2.20;;;;;;;36.05;22.47;100678.53;4489211;31;33366;-77
2023/09/06 09:28:43;;;;;;;6.45;2.33;;;;;;;35.44;23.54;100674.97;4498622;31;33612;-76
2023/09/06 09:31:13;;;;;;;;;;;;;;;35.20;22.58;100674.25;4488898;31;33405;-76
2023/09/06 09:33:44;;;;;;;;;;;;;;;36.01;22.55;100672.38;4481201;31;34318;-76
2023/09/06 09:36:16;;;;;;;;;;;;;;;36.48;22.05;100679.16;4495128;31;34943;-77
2023/09/06 09:38:48;;;;;;;;;;;;;;;36.72;21.94;100676.22;4487377;31;33594;-76
2023/09/06 09:41:16;;;;;;;;;;;;;;;36.92;21.09;100673.38;4485218;31;32879;-76
2023/09/06 09:43:43;;;;;;;;;;;;;;;37.08;20.88;100669.88;4488402;31;34618;-79
2023/09/06 09:46:10;;;;;;;;;;;;;;;37.10;21.65;100659.88;4495100;31;33997;-78
2023/09/06 09:48:39;;;;;;;;;;;;;;;37.31;21.67;100658.78;4485683;31;33910;-77
2023/09/06 09:51:07;;;;;;;;;;;;;;;37.47;21.49;100657.94;4493833;31;33054;-76
2023/09/06 09:53:35;;;;;;;;;;;;;;;37.41;21.58;100663.69;4488334;31;32667;-77
2023/09/06 09:56:06;;;;;;;;;;;;;;;37.56;21.57;100658.31;4489230;31;34316;-78
2023/09/06 09:58:34;;;;;;;;;;;;;;;38.05;20.88;100660.16;4497021;31;34049;-76
2023/09/06 10:01:05;;;;;;;;;;;;;;;37.76;20.99;100661.78;4475854;31;33185;-77
2023/09/06 10:03:36;;;;;;;;;;;;;;;37.56;20.95;100658.31;4472712;32;34315;-77
2023/09/06 10:06:03;;;;;;;;;;;;;;;37.98;20.42;100647.97;4488209;31;33657;-77
2023/09/06 10:08:31;;;;;;;;;;;;;;;38.04;20.46;100647.63;4475104;31;34849;-77
2023/09/06 10:10:59;;;;;;;;;;;;;;;38.24;20.25;100649.19;4487685;31;33351;-77
2023/09/06 10:13:26;;;;;;;;;;;;;;;38.58;19.91;100644.56;4494645;31;34099;-77
2023/09/06 10:15:56;;;;;;;;;;;;;;;38.69;19.41;100642.09;4469639;32;34791;-77
2023/09/06 10:18:24;;;;;;;;;;;;;;;38.42;19.22;100627.44;4469163;32;33975;-77
2023/09/06 10:20:51;;;;;;;;;;;;;;;38.69;19.85;100627.69;4485118;31;33155;-78
2023/09/06 10:23:19;;;;;;;;;;;;;;;38.48;19.72;100635.19;4471997;32;32434;-77
2023/09/06 10:25:50;;;;;;;;;;;;;;;38.35;19.48;100632.34;4476471;31;34392;-77
2023/09/06 10:28:23;;;;;;;;;;;;;;;38.33;19.70;100637.00;4490495;31;34532;-77
2023/09/06 10:30:54;;;;;;;;;;;;;;;38.15;20.13;100630.78;4490694;31;33920;-77
2023/09/06 10:33:35;;;;;;;;;;;;;;;38.27;19.92;100638.22;4485458;31;34156;-80
2023/09/06 10:36:08;;;;;;;;;;;;;;;38.28;19.19;100628.25;4484390;32;33885;-80
2023/09/06 10:38:57;;;;;;;;;;;;;;;38.13;19.72;100630.00;4484836;32;34512;-78
2023/09/06 10:41:26;;;;;;;;;;;;;;;37.94;20.01;100630.16;4486986;31;33109;-79
2023/09/06 10:43:55;;;;;;;;;;;;;;;38.00;20.26;100624.41;4474696;31;33985;-77
2023/09/06 10:46:26;;;;;;;;;;;;;;;38.33;19.56;100618.03;4473910;31;34198;-77
2023/09/06 10:49:12;;;;;;;;;;;;;;;38.35;19.79;100618.81;4485287;31;33904;-77
2023/09/06 10:51:55;;;;;;;;;;;;;;;38.50;19.95;100612.50;4484411;32;33985;-77
2023/09/06 10:54:37;;;;;;;;;;;;;;;38.49;20.06;100610.75;4484115;31;33729;-77
2023/09/06 10:57:05;;;;;;;;;;;;;;;38.63;18.91;100612.66;4477402;31;34353;-77
2023/09/06 10:59:35;;;;;;;;;;;;;;;38.46;18.28;100610.97;4487090;31;34155;-77
2023/09/06 11:02:07;;;;;;;;;;;;;;;38.58;19.12;100603.97;4485856;31;33448;-76
2023/09/06 11:04:35;;;;;;;;;;;;;;;38.63;19.25;100600.97;4490241;31;34890;-77
2023/09/06 11:07:09;;;;;;;;;;;;;;;38.85;19.19;100605.97;4492730;31;35082;-77
2023/09/06 11:09:43;;;;;;;;;;;;;;;38.76;19.42;100601.97;4491287;31;33771;-78
2023/09/06 11:12:11;;;;;;;;;;;;;;;38.91;19.14;100606.47;4482441;31;33837;-78
2023/09/06 11:14:39;;;;;;;;;;;;;;;39.01;18.77;100595.09;4493459;31;34512;-78
2023/09/06 11:17:07;;;;;;;;;;;;;;;38.87;18.62;100599.50;4489481;31;33629;-79
2023/09/06 11:19:37;;;;;;;;;;;;;;;39.00;18.91;100587.94;4487662;31;33983;-79
2023/09/06 11:22:06;;;;;;;;;;;;;;;38.96;19.08;100591.75;4473794;32;33201;-78
2023/09/06 11:24:35;;;;;;;;;;;;;;;38.93;18.69;100593.69;4490587;31;35564;-78
2023/09/06 11:27:22;;;;;;;;;;;;;;;38.62;19.28;100593.84;4479365;32;34167;-79
2023/09/06 11:29:57;;;;;;;;;;;;;;;38.99;18.14;100583.50;4449672;32;34778;-78
2023/09/06 11:32:26;;;;;;;;;;;;;;;38.87;18.49;100585.97;4495402;31;33236;-79
2023/09/06 11:34:54;;;;;;;;;;;;;;;38.60;18.94;100577.69;4491494;31;34751;-78
2023/09/06 11:37:21;;;;;;;;;;;;;;;38.48;19.06;100581.06;4471761;32;34376;-79
2023/09/06 11:39:49;;;;;;;;;;;;;;;38.96;18.63;100576.37;4483677;31;34321;-78
2023/09/06 11:42:19;;;;;;;;;;;;;;;39.06;18.95;100565.87;4481514;31;33340;-78
2023/09/06 11:44:55;;;;;;;;;;;;;;;39.25;18.53;100569.19;4494713;31;33810;-78
2023/09/06 11:47:23;;;;;;;;;;;;;;;39.17;18.30;100562.50;4487332;31;34951;-78
2023/09/06 11:49:50;;;;;;;;;;;;;;;38.47;19.37;100553.13;4472536;31;33941;-78
2023/09/06 11:52:19;;;;;;;;;;;;;;;39.17;18.17;100552.53;4477104;32;32825;-78
2023/09/06 11:54:52;;;;;;;;;;;;;;;38.99;18.68;100553.69;4487421;31;34860;-77